Time;durP1;ratioP1;P1;durP2;ratioP2;P2;SDS_P1;SDS_P2;PMS_P1;PMS_P2;Temp;Humidity;BMP_temperature;BMP_pressure;BME280_temperature;BME280_humidity;BME280_pressure;Samples;Min_cycle;Max_cycle;Signal;HPM_P1;HPM_P2
2021/04/17 00:00:50;;;;;;;12.60;6.97;;;8.70;22.20;;;;;;5058640;28;20417;-76
2021/04/17 00:03:15;;;;;;;11.93;7.07;;;8.70;22.30;;;;;;5053171;28;20466;-77
2021/04/17 00:05:41;;;;;;;10.83;7.27;;;8.70;21.80;;;;;;5053531;28;20389;-77
2021/04/17 00:08:07;;;;;;;15.17;7.20;;;8.70;21.90;;;;;;5054992;28;20381;-76
2021/04/17 00:10:32;;;;;;;12.17;6.80;;;8.60;22.00;;;;;;5061327;28;20391;-76
2021/04/17 00:12:58;;;;;;;13.90;6.50;;;8.60;22.10;;;;;;5070055;28;20729;-76
2021/04/17 00:15:24;;;;;;;11.85;6.75;;;8.70;22.00;;;;;;5054476;28;20464;-75
2021/04/17 00:17:49;;;;;;;8.82;5.80;;;8.70;21.50;;;;;;5064458;28;20402;-75
2021/04/17 00:20:15;;;;;;;10.70;6.55;;;8.60;21.90;;;;;;5074434;28;20786;-76
2021/04/17 00:22:40;;;;;;;11.55;6.88;;;8.60;22.20;;;;;;5076371;28;20779;-76
2021/04/17 00:25:06;;;;;;;11.02;6.65;;;8.60;21.90;;;;;;5076388;28;20494;-76
2021/04/17 00:27:32;;;;;;;11.73;6.70;;;8.60;22.40;;;;;;5066782;28;20462;-76
2021/04/17 00:29:58;;;;;;;10.03;6.57;;;8.60;22.60;;;;;;5054639;28;20730;-75
2021/04/17 00:32:23;;;;;;;12.43;7.03;;;8.60;22.60;;;;;;5054285;28;20809;-75
2021/04/17 00:34:49;;;;;;;18.10;7.00;;;8.50;23.00;;;;;;5053726;28;20385;-74
2021/04/17 00:37:14;;;;;;;8.77;6.50;;;8.50;23.00;;;;;;5053996;28;20470;-75
2021/04/17 00:39:40;;;;;;;13.40;6.60;;;8.40;23.00;;;;;;5053888;28;20742;-75
2021/04/17 00:42:06;;;;;;;11.63;6.90;;;8.40;23.30;;;;;;5052639;28;20504;-75
2021/04/17 00:44:34;;;;;;;9.60;6.30;;;8.30;23.50;;;;;;5055293;28;20888;-75
2021/04/17 00:47:01;;;;;;;9.52;6.50;;;8.30;23.70;;;;;;5052718;28;20393;-76
2021/04/17 00:49:27;;;;;;;13.25;6.68;;;8.20;24.30;;;;;;5054009;28;20390;-75
2021/04/17 00:51:53;;;;;;;11.00;6.70;;;8.10;24.50;;;;;;5053965;28;20750;-76
2021/04/17 00:54:18;;;;;;;20.20;7.00;;;8.10;25.00;;;;;;5053609;28;20401;-76
2021/04/17 00:56:44;;;;;;;8.90;6.50;;;8.00;25.10;;;;;;5054053;28;20865;-75
2021/04/17 00:59:10;;;;;;;10.27;6.87;;;7.90;25.40;;;;;;5054319;28;20474;-75
2021/04/17 01:01:35;;;;;;;11.63;6.83;;;7.90;25.40;;;;;;5072703;28;20406;-76
2021/04/17 01:04:15;;;;;;;12.23;6.47;;;7.90;25.60;;;;;;5074683;28;20415;-76
2021/04/17 01:07:03;;;;;;;15.10;7.30;;;7.80;26.00;;;;;;5074027;28;20431;-75
2021/04/17 01:09:53;;;;;;;13.32;7.00;;;7.80;26.20;;;;;;5073934;28;20740;-75
2021/04/17 01:12:22;;;;;;;9.35;6.20;;;7.80;26.00;;;;;;5073837;28;20651;-76
2021/04/17 01:14:51;;;;;;;8.77;6.10;;;7.70;26.20;;;;;;5057894;28;20445;-76
2021/04/17 01:17:18;;;;;;;9.17;6.70;;;7.70;26.20;;;;;;5063407;28;20411;-76
2021/04/17 01:19:46;;;;;;;13.43;7.13;;;7.70;26.60;;;;;;5073610;28;20923;-75
2021/04/17 01:22:22;;;;;;;10.25;6.80;;;7.60;27.40;;;;;;5073840;28;20408;-76
2021/04/17 01:25:04;;;;;;;10.73;6.55;;;7.60;27.20;;;;;;5073682;28;20436;-75
2021/04/17 01:27:30;;;;;;;7.83;6.23;;;7.50;27.90;;;;;;5070873;28;20424;-76
2021/04/17 01:29:56;;;;;;;10.55;6.57;;;7.50;28.20;;;;;;5075072;28;20466;-76
2021/04/17 01:32:23;;;;;;;11.85;6.65;;;7.50;27.80;;;;;;5074567;28;20392;-76
2021/04/17 01:34:50;;;;;;;10.13;6.28;;;7.40;28.00;;;;;;5065582;28;20445;-76
2021/04/17 01:37:17;;;;;;;8.68;6.28;;;7.40;28.20;;;;;;5068856;28;20453;-75
2021/04/17 01:39:43;;;;;;;11.00;6.38;;;7.40;28.00;;;;;;5066010;28;20753;-75
2021/04/17 01:42:14;;;;;;;10.27;6.50;;;7.30;28.60;;;;;;5052411;28;20397;-75
2021/04/17 01:44:47;;;;;;;9.93;6.28;;;7.30;28.40;;;;;;5053801;28;20385;-76
2021/04/17 01:47:15;;;;;;;8.30;6.70;;;7.20;28.90;;;;;;5054225;28;20820;-75
2021/04/17 01:49:44;;;;;;;12.30;6.80;;;7.20;29.00;;;;;;5053751;28;20381;-75
2021/04/17 01:52:13;;;;;;;14.57;6.80;;;7.20;29.90;;;;;;5064270;28;20389;-75
2021/04/17 01:54:49;;;;;;;10.03;6.40;;;7.10;29.60;;;;;;5081912;28;20477;-75
2021/04/17 01:57:19;;;;;;;11.73;6.57;;;7.10;29.70;;;;;;5084111;28;20380;-75
2021/04/17 01:59:47;;;;;;;9.27;6.55;;;7.10;30.30;;;;;;5080077;28;20830;-76
2021/04/17 02:02:14;;;;;;;9.00;6.25;;;7.00;30.70;;;;;;5073265;28;20414;-76
2021/04/17 02:04:40;;;;;;;10.75;6.30;;;7.10;29.90;;;;;;5072701;28;20771;-75
2021/04/17 02:07:05;;;;;;;9.20;6.55;;;7.00;30.50;;;;;;5068831;28;20415;-75
2021/04/17 02:09:31;;;;;;;8.77;6.80;;;7.00;29.80;;;;;;5052715;28;20388;-77
2021/04/17 02:11:56;;;;;;;9.05;6.00;;;7.00;29.90;;;;;;5052984;28;20389;-76
2021/04/17 02:14:22;;;;;;;9.30;6.27;;;7.00;30.00;;;;;;5054005;28;20396;-76
2021/04/17 02:17:13;;;;;;;11.20;6.50;;;6.90;30.20;;;;;;5053939;28;20404;-76
2021/04/17 02:19:57;;;;;;;7.82;5.72;;;6.90;30.40;;;;;;5071801;28;20780;-76
2021/04/17 02:22:24;;;;;;;8.25;6.18;;;6.80;30.90;;;;;;5071746;28;20407;-74
2021/04/17 02:24:52;;;;;;;11.52;6.20;;;6.80;30.80;;;;;;5056709;28;20463;-75
2021/04/17 02:27:18;;;;;;;11.45;6.10;;;6.80;30.90;;;;;;5050765;28;20480;-76
2021/04/17 02:29:44;;;;;;;10.90;6.20;;;6.70;31.50;;;;;;5050626;28;20393;-75
2021/04/17 02:32:16;;;;;;;8.98;6.13;;;6.70;31.40;;;;;;5052236;28;20388;-76
2021/04/17 02:34:42;;;;;;;8.15;6.10;;;6.60;31.50;;;;;;5053820;28;20902;-76
2021/04/17 02:37:08;;;;;;;11.32;6.18;;;6.60;31.60;;;;;;5072140;28;20396;-75
2021/04/17 02:39:34;;;;;;;10.05;6.60;;;6.60;31.90;;;;;;5070345;28;20383;-75
2021/04/17 02:42:00;;;;;;;11.87;6.70;;;6.60;31.90;;;;;;5071667;28;20753;-75
2021/04/17 02:44:25;;;;;;;9.00;6.20;;;6.50;32.80;;;;;;5071487;28;20451;-75
2021/04/17 02:46:51;;;;;;;11.80;6.20;;;6.50;32.70;;;;;;5071735;28;20383;-76
2021/04/17 02:49:16;;;;;;;10.80;6.33;;;6.40;33.20;;;;;;5055089;28;20396;-76
2021/04/17 02:51:42;;;;;;;9.77;6.90;;;6.40;33.10;;;;;;5051453;28;20369;-76
2021/04/17 02:54:07;;;;;;;12.35;6.35;;;6.40;33.50;;;;;;5051514;28;20462;-76
2021/04/17 02:56:33;;;;;;;13.00;6.50;;;6.30;33.10;;;;;;5051641;28;20381;-76
2021/04/17 02:58:59;;;;;;;10.02;6.47;;;6.30;33.20;;;;;;5069875;28;20400;-76
2021/04/17 03:01:24;;;;;;;8.20;6.40;;;6.30;33.50;;;;;;5071167;28;20403;-76
2021/04/17 03:03:50;;;;;;;11.00;6.13;;;6.30;33.70;;;;;;5071283;28;20384;-76
2021/04/17 03:06:15;;;;;;;10.87;6.60;;;6.30;33.60;;;;;;5071790;28;20376;-76
2021/04/17 03:08:41;;;;;;;8.73;6.10;;;6.20;33.90;;;;;;5071355;28;20498;-76
2021/04/17 03:11:06;;;;;;;11.90;6.17;;;6.20;34.20;;;;;;5068500;28;20765;-75
2021/04/17 03:13:32;;;;;;;14.70;6.17;;;6.10;34.20;;;;;;5071093;28;20891;-75
2021/04/17 03:15:58;;;;;;;9.30;6.70;;;6.10;34.80;;;;;;5071147;28;20395;-76
2021/04/17 03:18:24;;;;;;;9.67;6.03;;;6.10;34.90;;;;;;5071821;28;20383;-76
2021/04/17 03:20:50;;;;;;;9.90;6.13;;;6.00;34.80;;;;;;5072789;28;20403;-76
2021/04/17 03:23:16;;;;;;;10.80;6.10;;;6.00;34.60;;;;;;5074158;28;20380;-76
2021/04/17 03:25:41;;;;;;;11.23;6.40;;;6.00;35.10;;;;;;5073183;28;20398;-76
2021/04/17 03:28:07;;;;;;;9.50;6.23;;;5.90;35.60;;;;;;5057816;28;20393;-76
2021/04/17 03:30:33;;;;;;;9.98;6.45;;;5.90;35.70;;;;;;5055296;28;20396;-76
2021/04/17 03:33:00;;;;;;;10.93;6.18;;;5.90;36.40;;;;;;5053430;28;20385;-73
2021/04/17 03:35:28;;;;;;;10.70;6.72;;;5.80;36.00;;;;;;5050706;28;20389;-72
2021/04/17 03:37:54;;;;;;;16.58;6.78;;;5.80;36.40;;;;;;5052203;28;20389;-72
2021/04/17 03:40:19;;;;;;;11.27;6.27;;;5.80;36.70;;;;;;5051327;28;20393;-72
2021/04/17 03:42:45;;;;;;;11.32;6.70;;;5.80;36.70;;;;;;5052453;28;20922;-71
2021/04/17 03:45:12;;;;;;;10.05;6.72;;;5.70;36.90;;;;;;5052947;28;20385;-72
2021/04/17 03:47:37;;;;;;;8.75;6.47;;;5.70;37.20;;;;;;5053821;28;20397;-73
2021/04/17 03:50:05;;;;;;;10.75;6.65;;;5.70;37.60;;;;;;5068845;28;20374;-72
2021/04/17 03:52:30;;;;;;;10.45;6.38;;;5.70;37.80;;;;;;5053617;28;20468;-72
2021/04/17 03:54:56;;;;;;;11.70;6.80;;;5.60;38.10;;;;;;5075550;22;20443;-68
2021/04/17 03:57:21;;;;;;;12.17;6.50;;;5.60;38.40;;;;;;5071190;28;20392;-68
2021/04/17 03:59:47;;;;;;;11.57;6.40;;;5.60;38.70;;;;;;5072154;28;20435;-68
2021/04/17 04:02:13;;;;;;;12.33;6.30;;;5.60;38.60;;;;;;5073274;28;20473;-68
2021/04/17 04:04:39;;;;;;;9.35;6.75;;;5.50;38.70;;;;;;5079206;28;20386;-68
2021/04/17 04:07:06;;;;;;;9.88;6.10;;;5.50;39.60;;;;;;5084320;28;20406;-68
2021/04/17 04:09:32;;;;;;;13.52;6.80;;;5.50;40.10;;;;;;5072450;28;20386;-68
2021/04/17 04:11:58;;;;;;;11.15;6.53;;;5.40;40.20;;;;;;5071734;28;20392;-68
2021/04/17 04:14:24;;;;;;;10.60;7.15;;;5.40;40.40;;;;;;5071480;28;20379;-68
2021/04/17 04:16:50;;;;;;;11.00;7.03;;;5.30;41.10;;;;;;5071213;28;20402;-68
2021/04/17 04:19:16;;;;;;;12.60;7.07;;;5.30;41.20;;;;;;5071212;28;20487;-69
2021/04/17 04:21:41;;;;;;;13.33;7.30;;;5.20;42.10;;;;;;5071303;28;20449;-69
2021/04/17 04:24:08;;;;;;;12.30;7.80;;;5.20;43.30;;;;;;5070808;28;20914;-69
2021/04/17 04:26:33;;;;;;;12.05;7.43;;;5.10;42.90;;;;;;5070894;28;20478;-68
2021/04/17 04:28:59;;;;;;;10.60;7.28;;;5.20;43.10;;;;;;5090567;28;20870;-70
2021/04/17 04:31:24;;;;;;;13.25;7.60;;;5.00;44.00;;;;;;5091294;28;20378;-71
2021/04/17 04:33:50;;;;;;;13.60;7.95;;;5.00;45.20;;;;;;5078003;28;20380;-70
2021/04/17 04:36:16;;;;;;;12.52;7.60;;;5.10;44.70;;;;;;5089229;28;20465;-69
2021/04/17 04:38:41;;;;;;;13.73;7.63;;;5.10;44.70;;;;;;5078414;28;20495;-70
2021/04/17 04:41:07;;;;;;;14.00;7.40;;;5.10;44.90;;;;;;5071648;28;20490;-68
2021/04/17 04:43:32;;;;;;;14.90;7.73;;;5.00;47.20;;;;;;5071319;28;20420;-68
2021/04/17 04:45:58;;;;;;;13.40;8.00;;;5.00;46.00;;;;;;5053913;28;20388;-69
2021/04/17 04:48:23;;;;;;;13.57;7.80;;;4.90;47.20;;;;;;5074962;28;20948;-69
2021/04/17 04:50:49;;;;;;;11.87;7.67;;;4.90;47.70;;;;;;5095974;28;20484;-68
2021/04/17 04:53:15;;;;;;;14.00;7.72;;;5.10;45.80;;;;;;5095438;28;20734;-71
2021/04/17 04:55:40;;;;;;;16.17;7.57;;;5.10;45.10;;;;;;5094973;28;20390;-68
2021/04/17 04:58:06;;;;;;;13.40;7.40;;;5.10;44.20;;;;;;5081583;28;20396;-69
2021/04/17 05:00:31;;;;;;;17.83;7.72;;;5.20;44.10;;;;;;5073593;28;20388;-69
2021/04/17 05:02:57;;;;;;;11.40;7.63;;;5.20;43.30;;;;;;5073076;28;20386;-70
2021/04/17 05:05:23;;;;;;;14.20;7.53;;;5.20;45.30;;;;;;5073253;28;20376;-70
2021/04/17 05:07:49;;;;;;;11.60;7.07;;;5.20;44.60;;;;;;5073241;28;20387;-69
2021/04/17 05:10:15;;;;;;;10.87;7.30;;;5.30;43.40;;;;;;5073304;28;20388;-69
2021/04/17 05:12:40;;;;;;;12.77;7.20;;;5.30;42.90;;;;;;5072606;28;20395;-69
2021/04/17 05:15:07;;;;;;;12.65;7.47;;;5.30;42.80;;;;;;5073204;28;20406;-69
2021/04/17 05:17:32;;;;;;;12.38;7.22;;;5.40;41.80;;;;;;5073224;28;20426;-69
2021/04/17 05:19:58;;;;;;;13.98;6.72;;;5.40;41.70;;;;;;5073529;28;20415;-69
2021/04/17 05:22:23;;;;;;;15.83;7.07;;;5.50;42.10;;;;;;5073094;28;20421;-69
2021/04/17 05:24:50;;;;;;;16.60;8.33;;;5.50;41.60;;;;;;5073115;28;20392;-69
2021/04/17 05:27:16;;;;;;;12.27;7.30;;;5.60;42.30;;;;;;5078413;28;20378;-69
2021/04/17 05:29:41;;;;;;;13.70;7.25;;;5.70;42.00;;;;;;5093101;28;20474;-70
2021/04/17 05:32:08;;;;;;;15.57;7.28;;;5.70;41.00;;;;;;5093468;28;20427;-69
2021/04/17 05:34:34;;;;;;;17.50;6.80;;;5.80;39.90;;;;;;5073269;28;20404;-69
2021/04/17 05:37:00;;;;;;;12.43;7.37;;;5.90;38.90;;;;;;5072656;28;20383;-70
2021/04/17 05:39:26;;;;;;;11.43;6.50;;;5.90;39.10;;;;;;5081885;28;20451;-70
2021/04/17 05:41:52;;;;;;;13.23;7.55;;;6.00;38.40;;;;;;5088261;28;20411;-70
2021/04/17 05:44:18;;;;;;;11.45;7.20;;;6.20;38.30;;;;;;5072453;28;20387;-70
2021/04/17 05:46:43;;;;;;;14.30;6.90;;;6.20;37.50;;;;;;5072659;28;20423;-69
2021/04/17 05:49:10;;;;;;;13.00;7.20;;;6.40;37.70;;;;;;5072468;28;20384;-70
2021/04/17 05:51:38;;;;;;;8.63;6.20;;;6.50;35.50;;;;;;5072436;28;20883;-70
2021/04/17 05:54:04;;;;;;;10.73;6.75;;;6.70;34.60;;;;;;5086429;28;20960;-70
2021/04/17 05:56:30;;;;;;;13.38;7.10;;;7.00;34.00;;;;;;5092398;28;20473;-70
2021/04/17 05:58:56;;;;;;;11.40;7.13;;;7.00;31.70;;;;;;5083789;28;20425;-69
2021/04/17 06:01:22;;;;;;;11.00;6.87;;;6.90;32.30;;;;;;5081155;28;20502;-68
2021/04/17 06:03:47;;;;;;;13.77;6.78;;;6.90;32.30;;;;;;5090396;28;20394;-69
2021/04/17 06:06:13;;;;;;;11.73;7.05;;;6.90;33.20;;;;;;5072445;28;20391;-69
2021/04/17 06:08:38;;;;;;;12.50;6.90;;;6.90;33.00;;;;;;5072237;28;20479;-69
2021/04/17 06:11:07;;;;;;;12.13;6.87;;;6.90;33.00;;;;;;5072015;28;20430;-68
2021/04/17 06:13:34;;;;;;;15.00;7.20;;;7.00;32.70;;;;;;5074331;28;20453;-68
2021/04/17 06:16:01;;;;;;;13.23;7.50;;;7.00;31.90;;;;;;5092132;28;20426;-68
2021/04/17 06:18:27;;;;;;;13.63;7.03;;;6.90;32.50;;;;;;5062765;28;20408;-70
2021/04/17 06:20:53;;;;;;;14.57;7.22;;;6.80;32.80;;;;;;5056911;28;20422;-69
2021/04/17 06:23:18;;;;;;;13.27;7.18;;;6.70;33.20;;;;;;5076360;28;20371;-68
2021/04/17 06:25:44;;;;;;;12.43;6.90;;;6.60;33.70;;;;;;5071583;28;20390;-69
2021/04/17 06:28:09;;;;;;;11.40;6.70;;;6.50;34.00;;;;;;5081363;28;20541;-69
2021/04/17 06:30:35;;;;;;;13.83;6.70;;;6.50;34.30;;;;;;5071225;28;20930;-68
2021/04/17 06:33:01;;;;;;;12.80;7.30;;;6.50;34.60;;;;;;5063975;28;20390;-69
2021/04/17 06:35:27;;;;;;;13.90;6.80;;;6.50;34.30;;;;;;5052002;28;20577;-69
2021/04/17 06:37:52;;;;;;;11.77;7.70;;;6.60;34.20;;;;;;5059209;28;20774;-68
2021/04/17 06:40:18;;;;;;;12.80;6.87;;;6.70;34.50;;;;;;5070940;28;20435;-67
2021/04/17 06:42:45;;;;;;;11.43;7.07;;;6.80;33.10;;;;;;5072207;28;20843;-67
2021/04/17 06:45:13;;;;;;;13.13;6.72;;;6.90;33.80;;;;;;5072067;28;20766;-68
2021/04/17 06:47:40;;;;;;;16.20;6.70;;;7.00;32.00;;;;;;5070887;28;20410;-68
2021/04/17 06:50:07;;;;;;;10.95;6.60;;;7.00;32.70;;;;;;5071292;28;20689;-68
2021/04/17 06:52:36;;;;;;;15.85;7.40;;;7.10;31.50;;;;;;5071402;28;20402;-68
2021/04/17 06:55:03;;;;;;;13.52;6.85;;;7.10;30.90;;;;;;5070757;28;20412;-69
2021/04/17 06:57:28;;;;;;;12.18;6.85;;;7.10;31.30;;;;;;5052329;28;20909;-68
2021/04/17 06:59:55;;;;;;;12.88;6.82;;;7.20;30.60;;;;;;5082047;28;20421;-70
2021/04/17 07:02:20;;;;;;;10.48;7.30;;;7.30;31.00;;;;;;5082215;28;20441;-71
2021/04/17 07:04:49;;;;;;;14.05;7.50;;;7.40;30.20;;;;;;5072717;28;20464;-69
2021/04/17 07:07:14;;;;;;;10.38;7.43;;;7.60;29.90;;;;;;5084504;28;20569;-69
2021/04/17 07:09:40;;;;;;;11.75;6.68;;;7.60;30.80;;;;;;5069807;28;20479;-69
2021/04/17 07:12:06;;;;;;;13.10;7.20;;;7.80;28.40;;;;;;5070189;28;20390;-69
2021/04/17 07:14:46;;;;;;;10.48;6.80;;;7.90;28.20;;;;;;5070497;28;20768;-69
2021/04/17 07:17:12;;;;;;;13.18;6.60;;;7.90;27.50;;;;;;5070546;28;20483;-69
2021/04/17 07:19:45;;;;;;;11.53;6.80;;;8.00;27.20;;;;;;5070338;28;20995;-69
2021/04/17 07:22:18;;;;;;;9.73;6.35;;;8.00;26.30;;;;;;5070494;28;20406;-70
2021/04/17 07:24:45;;;;;;;9.93;6.10;;;8.00;26.50;;;;;;5069870;28;20410;-69
2021/04/17 07:27:29;;;;;;;19.35;6.78;;;8.10;25.70;;;;;;5069445;28;20391;-69
2021/04/17 07:29:55;;;;;;;15.20;7.55;;;8.10;25.60;;;;;;5070032;28;20395;-69
2021/04/17 07:32:21;;;;;;;9.70;6.20;;;8.20;25.50;;;;;;5070118;28;20401;-69
2021/04/17 07:35:03;;;;;;;9.40;6.30;;;8.40;24.50;;;;;;5078943;28;20395;-69
2021/04/17 07:37:29;;;;;;;11.27;6.40;;;8.40;23.30;;;;;;5055000;28;20793;-68
2021/04/17 07:39:54;;;;;;;9.87;6.23;;;8.50;23.00;;;;;;5072040;28;20387;-70
2021/04/17 07:42:20;;;;;;;10.80;6.50;;;8.50;23.90;;;;;;5063903;28;20515;-73
2021/04/17 07:44:48;;;;;;;15.53;5.80;;;8.60;23.70;;;;;;5071085;28;20494;-71
2021/04/17 07:47:30;;;;;;;11.48;6.40;;;8.80;23.10;;;;;;5054155;28;20380;-70
2021/04/17 07:50:04;;;;;;;8.73;6.20;;;8.80;22.70;;;;;;5077298;28;20432;-71
2021/04/17 07:52:32;;;;;;;11.40;6.70;;;8.90;22.50;;;;;;5072468;28;20719;-71
2021/04/17 07:55:03;;;;;;;13.95;6.63;;;8.90;22.50;;;;;;5090223;28;20955;-71
2021/04/17 07:57:39;;;;;;;11.05;6.18;;;8.90;22.10;;;;;;5071243;28;20415;-70
2021/04/17 08:00:08;;;;;;;11.50;6.55;;;8.90;22.30;;;;;;5077820;28;20400;-72
2021/04/17 08:02:34;;;;;;;12.05;6.40;;;8.90;23.20;;;;;;5076243;28;20461;-72
2021/04/17 08:05:01;;;;;;;13.68;7.40;;;8.80;23.20;;;;;;5072916;28;20391;-71
2021/04/17 08:07:28;;;;;;;14.98;7.15;;;9.00;23.20;;;;;;5076782;28;20914;-71
2021/04/17 08:09:58;;;;;;;10.50;6.10;;;9.10;21.00;;;;;;5072664;28;20936;-71
2021/04/17 08:12:24;;;;;;;11.23;6.20;;;9.30;20.00;;;;;;5089155;28;20733;-71
2021/04/17 08:14:51;;;;;;;11.70;6.72;;;9.40;19.00;;;;;;5072527;28;20391;-71
2021/04/17 08:17:17;;;;;;;12.25;6.68;;;9.50;20.00;;;;;;5072236;28;20388;-72
2021/04/17 08:19:43;;;;;;;13.68;6.70;;;9.50;20.20;;;;;;5072207;28;20446;-72
2021/04/17 08:22:09;;;;;;;16.30;7.30;;;9.40;21.20;;;;;;5071082;28;20832;-72
2021/04/17 08:24:35;;;;;;;14.87;7.20;;;9.50;21.50;;;;;;5057354;28;20403;-72
2021/04/17 08:27:02;;;;;;;9.82;6.60;;;9.50;20.60;;;;;;5074826;28;20565;-69
2021/04/17 08:29:48;;;;;;;14.10;6.53;;;9.60;20.00;;;;;;5074265;28;20392;-74
2021/04/17 08:32:33;;;;;;;11.57;6.90;;;9.50;19.70;;;;;;5072643;28;20451;-71
2021/04/17 08:35:13;;;;;;;11.88;6.20;;;9.60;19.70;;;;;;5071528;28;20725;-71
2021/04/17 08:37:54;;;;;;;12.73;6.70;;;9.60;19.40;;;;;;5064642;28;20775;-71
2021/04/17 08:40:42;;;;;;;12.55;6.80;;;9.60;19.50;;;;;;5090160;28;20394;-71
2021/04/17 08:43:08;;;;;;;12.95;7.00;;;9.70;18.90;;;;;;5051502;28;20912;-71
2021/04/17 08:45:34;;;;;;;12.45;6.30;;;9.80;19.00;;;;;;5076580;28;20398;-70
2021/04/17 08:48:02;;;;;;;13.60;6.55;;;10.10;18.10;;;;;;5073767;28;20411;-71
2021/04/17 08:50:37;;;;;;;9.55;5.70;;;10.00;17.30;;;;;;5072706;28;20410;-70
2021/04/17 08:53:02;;;;;;;10.63;6.05;;;10.00;17.50;;;;;;5074235;28;20430;-70
2021/04/17 08:55:35;;;;;;;13.93;7.07;;;10.00;17.60;;;;;;5085291;28;20448;-71
2021/04/17 08:58:12;;;;;;;13.95;7.10;;;10.00;18.90;;;;;;5077470;28;20396;-71
2021/04/17 09:01:01;;;;;;;17.08;7.30;;;10.00;18.80;;;;;;5082582;28;20391;-70
2021/04/17 09:03:44;;;;;;;15.65;6.80;;;10.00;19.20;;;;;;5081606;28;20390;-70
2021/04/17 09:06:33;;;;;;;11.82;7.03;;;10.10;18.70;;;;;;5064869;28;20390;-70
2021/04/17 09:09:19;;;;;;;8.82;5.95;;;10.20;18.00;;;;;;5091070;28;20374;-70
2021/04/17 09:12:13;;;;;;;11.75;6.32;;;10.30;17.70;;;;;;5073936;28;20415;-72
2021/04/17 09:14:49;;;;;;;13.90;6.43;;;10.40;17.00;;;;;;5071759;28;20795;-72
2021/04/17 09:17:38;;;;;;;19.60;7.47;;;10.30;17.20;;;;;;5068176;28;20399;-71
2021/04/17 09:20:08;;;;;;;12.68;6.32;;;10.40;17.20;;;;;;5071086;28;20403;-71
2021/04/17 09:22:34;;;;;;;12.93;6.13;;;10.60;17.20;;;;;;5072661;28;20411;-72
2021/04/17 09:25:06;;;;;;;12.20;6.10;;;10.70;17.10;;;;;;5073114;28;20400;-71
2021/04/17 09:27:34;;;;;;;12.43;6.30;;;10.80;15.80;;;;;;5072371;28;21727;-71
2021/04/17 09:30:15;;;;;;;9.50;5.70;;;10.80;15.40;;;;;;5072758;28;20418;-72
2021/04/17 09:32:52;;;;;;;9.52;4.60;;;10.90;13.30;;;;;;5070072;28;20408;-71
2021/04/17 09:35:35;;;;;;;12.75;4.90;;;11.10;12.20;;;;;;5072886;28;20426;-71
2021/04/17 09:38:07;;;;;;;6.10;3.70;;;11.30;11.80;;;;;;5076111;28;20442;-70
2021/04/17 09:40:40;;;;;;;11.45;5.30;;;11.50;11.10;;;;;;5084308;28;20396;-69
2021/04/17 09:43:19;;;;;;;5.20;4.27;;;11.60;11.90;;;;;;5082313;28;20727;-70
2021/04/17 09:45:45;;;;;;;9.35;5.10;;;11.80;11.00;;;;;;5080114;28;20398;-70
2021/04/17 09:48:11;;;;;;;8.43;4.95;;;12.00;10.60;;;;;;5070303;28;20396;-70
2021/04/17 09:50:38;;;;;;;14.10;5.35;;;12.00;10.60;;;;;;5038916;28;20909;-70
2021/04/17 09:53:28;;;;;;;8.88;4.63;;;12.20;11.10;;;;;;5067536;28;20395;-70
2021/04/17 09:55:58;;;;;;;7.40;4.90;;;12.50;10.50;;;;;;5085135;22;20443;-74
2021/04/17 09:58:35;;;;;;;8.85;4.53;;;12.60;10.50;;;;;;5073909;28;20423;-75
2021/04/17 10:01:10;;;;;;;7.45;4.63;;;12.70;10.30;;;;;;5065783;28;20419;-78
2021/04/17 10:03:38;;;;;;;6.97;4.00;;;12.60;10.20;;;;;;5059047;28;20394;-77
2021/04/17 10:06:22;;;;;;;6.30;4.33;;;12.50;9.30;;;;;;5079443;28;20398;-77
2021/04/17 10:08:47;;;;;;;10.73;4.97;;;12.70;8.60;;;;;;5036250;28;20432;-76
2021/04/17 10:11:21;;;;;;;9.45;5.30;;;12.90;10.30;;;;;;5012960;28;21039;-75
2021/04/17 10:13:47;;;;;;;10.20;5.45;;;12.70;11.10;;;;;;5012326;28;20500;-74
2021/04/17 10:16:15;;;;;;;8.80;4.90;;;12.60;11.80;;;;;;5013221;28;20503;-74
2021/04/17 10:18:44;;;;;;;12.07;5.40;;;12.60;12.10;;;;;;5007461;28;20465;-74
2021/04/17 10:21:11;;;;;;;15.93;5.50;;;12.40;11.90;;;;;;4993216;28;20410;-75
2021/04/17 10:23:36;;;;;;;10.55;5.20;;;12.50;11.60;;;;;;5008949;28;20399;-74
2021/04/17 10:26:09;;;;;;;9.27;4.90;;;12.60;11.00;;;;;;5012847;28;20741;-75
2021/04/17 10:28:37;;;;;;;12.23;5.00;;;12.60;10.70;;;;;;5012057;28;20399;-73
2021/04/17 10:31:18;;;;;;;7.13;3.60;;;12.70;9.80;;;;;;5011537;28;20753;-73
2021/04/17 10:33:46;;;;;;;7.00;4.30;;;12.80;7.20;;;;;;5012056;28;20420;-73
2021/04/17 10:36:30;;;;;;;10.27;4.32;;;13.10;8.00;;;;;;5009957;28;20423;-74
2021/04/17 10:39:07;;;;;;;7.63;4.80;;;13.60;6.70;;;;;;5001965;28;20405;-74
2021/04/17 10:41:34;;;;;;;7.50;4.50;;;13.80;6.40;;;;;;5012286;28;20412;-73
2021/04/17 10:44:14;;;;;;;9.20;4.50;;;13.90;6.10;;;;;;5012359;28;20787;-73
2021/04/17 10:46:47;;;;;;;6.93;4.20;;;14.00;5.70;;;;;;5012089;28;20727;-73
2021/04/17 10:49:35;;;;;;;9.00;3.90;;;13.80;4.60;;;;;;5013278;28;20443;-73
2021/04/17 10:52:04;;;;;;;9.05;4.60;;;13.80;5.20;;;;;;4996318;28;20406;-74
2021/04/17 10:54:30;;;;;;;9.80;4.22;;;13.60;5.80;;;;;;5026929;28;20397;-74
2021/04/17 10:57:05;;;;;;;7.40;5.03;;;13.90;5.60;;;;;;5011119;28;20419;-74
2021/04/17 11:00:05;;;;;;;8.03;4.40;;;13.90;5.90;;;;;;5027433;28;20391;-74
2021/04/17 11:02:35;;;;;;;11.30;5.47;;;13.90;5.60;;;;;;5012088;28;20412;-74
2021/04/17 11:05:04;;;;;;;10.13;5.30;;;14.00;5.60;;;;;;5011831;28;20392;-74
2021/04/17 11:07:32;;;;;;;11.43;4.35;;;14.10;5.40;;;;;;4998370;28;20887;-73
2021/04/17 11:09:58;;;;;;;7.43;5.20;;;13.90;5.90;;;;;;5012006;28;20405;-74
2021/04/17 11:12:27;;;;;;;9.35;5.40;;;14.00;7.40;;;;;;5012172;28;20458;-74
2021/04/17 11:15:21;;;;;;;14.63;5.87;;;14.30;6.10;;;;;;5012332;28;20388;-73
2021/04/17 11:18:09;;;;;;;7.25;4.43;;;14.40;6.20;;;;;;5002539;28;20398;-73
2021/04/17 11:20:52;;;;;;;9.05;4.70;;;14.30;5.70;;;;;;4993894;28;20406;-74
2021/04/17 11:23:56;;;;;;;8.52;5.80;;;13.80;6.10;;;;;;5000811;28;20396;-74
2021/04/17 11:26:38;;;;;;;19.65;7.28;;;13.90;6.20;;;;;;5025909;28;20393;-73
2021/04/17 11:29:04;;;;;;;9.33;4.83;;;14.30;6.30;;;;;;5026008;28;20369;-75
2021/04/17 11:31:34;;;;;;;7.97;5.03;;;14.20;5.10;;;;;;5015559;28;20450;-74
2021/04/17 11:34:02;;;;;;;9.35;5.10;;;14.10;6.40;;;;;;5012936;28;20389;-72
2021/04/17 11:36:30;;;;;;;12.73;5.80;;;14.10;6.30;;;;;;5012386;28;20404;-74
2021/04/17 11:38:57;;;;;;;13.57;5.43;;;14.40;6.30;;;;;;5010883;28;20397;-73
2021/04/17 11:41:24;;;;;;;10.80;5.13;;;14.70;6.10;;;;;;5016425;28;20420;-75
2021/04/17 11:43:49;;;;;;;11.63;5.25;;;14.70;5.90;;;;;;5020510;28;20413;-73
2021/04/17 11:46:16;;;;;;;10.00;5.18;;;14.60;6.30;;;;;;5024136;28;20385;-74
2021/04/17 11:48:44;;;;;;;8.15;4.70;;;14.00;6.40;;;;;;5038103;28;20393;-74
2021/04/17 11:51:10;;;;;;;7.07;4.88;;;14.00;6.70;;;;;;5029266;28;20399;-73
2021/04/17 11:53:38;;;;;;;10.70;4.27;;;14.10;7.00;;;;;;5025949;28;20404;-74
2021/04/17 11:56:05;;;;;;;9.18;4.90;;;14.00;7.10;;;;;;5011357;28;20411;-74
2021/04/17 11:58:31;;;;;;;9.10;5.00;;;14.00;7.20;;;;;;5005552;28;20409;-73
2021/04/17 12:00:58;;;;;;;12.15;5.93;;;14.10;7.40;;;;;;5008842;28;20470;-77
2021/04/17 12:03:24;;;;;;;8.13;5.40;;;14.20;7.20;;;;;;5012943;28;20393;-76
2021/04/17 12:05:51;;;;;;;9.00;5.53;;;14.30;6.60;;;;;;5031425;28;20400;-72
2021/04/17 12:08:17;;;;;;;13.63;6.03;;;14.60;6.60;;;;;;5011196;28;20880;-73
2021/04/17 12:10:44;;;;;;;8.35;6.05;;;15.00;6.20;;;;;;5013631;28;20397;-73
2021/04/17 12:13:10;;;;;;;12.25;5.97;;;15.30;5.30;;;;;;5015145;28;20414;-73
2021/04/17 12:15:36;;;;;;;13.05;6.20;;;15.10;5.40;;;;;;5014897;28;20400;-74
2021/04/17 12:18:02;;;;;;;11.50;6.60;;;14.60;5.70;;;;;;5015169;28;20751;-73
2021/04/17 12:20:28;;;;;;;11.45;6.40;;;14.50;6.30;;;;;;5017417;28;20511;-73
2021/04/17 12:22:54;;;;;;;9.23;6.20;;;14.90;6.40;;;;;;5016162;28;20916;-73
2021/04/17 12:25:22;;;;;;;10.23;6.07;;;15.20;5.10;;;;;;5015974;28;20485;-71
2021/04/17 12:27:47;;;;;;;10.88;6.60;;;15.40;5.30;;;;;;5014714;28;20896;-73
2021/04/17 12:30:13;;;;;;;10.10;5.63;;;15.60;5.10;;;;;;5014806;28;20404;-72
2021/04/17 12:32:39;;;;;;;10.50;6.60;;;15.50;4.60;;;;;;5014397;28;20412;-72
2021/04/17 12:35:06;;;;;;;18.00;6.80;;;14.80;4.70;;;;;;5010388;28;20430;-73
2021/04/17 12:37:32;;;;;;;9.27;5.80;;;14.90;4.30;;;;;;5014532;28;20499;-72
2021/04/17 12:39:58;;;;;;;9.73;6.03;;;14.80;3.90;;;;;;5008088;28;20425;-74
2021/04/17 12:42:24;;;;;;;10.90;6.07;;;15.00;4.10;;;;;;5015516;28;20412;-79
2021/04/17 12:44:49;;;;;;;8.30;5.50;;;14.80;4.60;;;;;;5010926;28;20423;-77
2021/04/17 12:47:15;;;;;;;14.27;6.40;;;14.50;4.10;;;;;;5002406;28;20417;-77
2021/04/17 12:49:41;;;;;;;10.38;6.18;;;14.50;5.10;;;;;;5003568;28;20451;-77
2021/04/17 12:52:07;;;;;;;10.35;5.72;;;14.60;4.60;;;;;;5009106;28;20402;-77
2021/04/17 12:54:32;;;;;;;10.13;5.67;;;14.20;4.70;;;;;;5005543;28;20739;-78
2021/04/17 12:56:58;;;;;;;12.20;5.70;;;14.00;5.90;;;;;;5007203;28;20482;-77